createdAt,value
2023-09-22T00:01:25.457Z,13.44
2023-09-22T00:03:57.576Z,13.36
2023-09-22T00:06:27.565Z,13.29
2023-09-22T00:08:57.633Z,13.17
2023-09-22T00:11:28.881Z,13.18
2023-09-22T00:14:00.517Z,13.22
2023-09-22T00:16:30.458Z,13.21
2023-09-22T00:19:02.708Z,13.15
2023-09-22T00:21:32.584Z,13.10
2023-09-22T00:24:02.611Z,13.13
2023-09-22T00:26:33.995Z,13.18
2023-09-22T00:29:05.027Z,13.05
2023-09-22T00:31:34.955Z,12.92
2023-09-22T00:34:06.368Z,12.95
2023-09-22T00:36:36.506Z,12.99
2023-09-22T00:39:06.665Z,12.96
2023-09-22T00:41:38.289Z,12.83
2023-09-22T00:44:08.520Z,12.83
2023-09-22T00:46:40.384Z,12.83
2023-09-22T00:49:11.336Z,12.79
2023-09-22T00:51:41.828Z,12.83
2023-09-22T00:54:12.284Z,12.88
2023-09-22T00:56:43.844Z,12.89
2023-09-22T00:59:14.677Z,12.79
2023-09-22T01:01:45.326Z,12.78
2023-09-22T01:04:15.747Z,12.78
2023-09-22T01:06:46.474Z,12.78
2023-09-22T01:09:16.793Z,12.61
2023-09-22T01:11:47.991Z,12.53
2023-09-22T01:14:18.072Z,12.53
2023-09-22T01:16:47.916Z,12.56
2023-09-22T01:19:18.883Z,12.57
2023-09-22T01:21:50.802Z,12.62
2023-09-22T01:24:21.002Z,12.53
2023-09-22T01:26:50.759Z,12.49
2023-09-22T01:29:21.037Z,12.48
2023-09-22T01:31:50.898Z,12.48
2023-09-22T01:34:21.866Z,12.41
2023-09-22T01:36:53.138Z,12.41
2023-09-22T01:39:25.121Z,12.44
2023-09-22T01:41:55.256Z,12.39
2023-09-22T01:44:26.325Z,12.40
2023-09-22T01:46:56.056Z,12.36
2023-09-22T01:49:27.197Z,12.35
2023-09-22T01:51:58.516Z,12.40
2023-09-22T01:54:28.734Z,12.35
2023-09-22T01:56:58.487Z,12.35
2023-09-22T01:59:28.566Z,12.28
2023-09-22T02:01:58.198Z,12.30
2023-09-22T02:04:29.838Z,12.28
2023-09-22T02:07:01.223Z,12.34
2023-09-22T02:09:31.440Z,12.27
2023-09-22T02:12:01.220Z,12.28
2023-09-22T02:14:31.578Z,12.27
2023-09-22T02:17:01.460Z,12.24
2023-09-22T02:19:31.717Z,12.22
2023-09-22T02:22:02.918Z,12.26
2023-09-22T02:24:33.094Z,12.27
2023-09-22T02:27:03.914Z,12.24
2023-09-22T02:29:34.124Z,12.20
2023-09-22T02:32:04.015Z,12.19
2023-09-22T02:34:34.682Z,12.13
2023-09-22T02:37:06.649Z,12.03
2023-09-22T02:39:37.368Z,12.11
2023-09-22T02:42:08.387Z,12.10
2023-09-22T02:44:38.549Z,12.10
2023-09-22T02:47:08.602Z,11.99
2023-09-22T02:49:38.972Z,11.99
2023-09-22T02:52:12.093Z,11.96
2023-09-22T02:54:43.018Z,12.01
2023-09-22T02:57:12.852Z,12.04
2023-09-22T02:59:42.953Z,12.03
2023-09-22T03:02:12.920Z,12.11
2023-09-22T03:04:43.280Z,12.18
2023-09-22T03:07:14.784Z,12.17
2023-09-22T03:09:45.075Z,12.18
2023-09-22T03:12:14.931Z,12.09
2023-09-22T03:14:45.166Z,12.08
2023-09-22T03:17:15.573Z,12.08
2023-09-22T03:19:45.663Z,12.07
2023-09-22T03:22:16.905Z,12.01
2023-09-22T03:24:47.103Z,12.06
2023-09-22T03:27:17.595Z,12.08
2023-09-22T03:29:49.686Z,12.06
2023-09-22T03:32:22.653Z,12.16
2023-09-22T03:34:53.108Z,12.18
2023-09-22T03:37:28.658Z,12.14
2023-09-22T03:39:59.414Z,11.97
2023-09-22T03:42:29.404Z,11.89
2023-09-22T03:45:00.507Z,11.96
2023-09-22T03:47:31.066Z,12.06
2023-09-22T03:50:01.817Z,12.01
2023-09-22T03:52:33.277Z,11.93
2023-09-22T03:55:03.982Z,11.92
2023-09-22T03:57:34.473Z,11.93
2023-09-22T04:00:11.528Z,12.01
2023-09-22T04:02:44.042Z,12.02
2023-09-22T04:05:15.288Z,11.99
2023-09-22T04:07:47.272Z,11.95
2023-09-22T04:10:18.570Z,11.94
2023-09-22T04:12:48.522Z,11.96
2023-09-22T04:15:19.145Z,12.03
2023-09-22T04:17:49.080Z,12.18
2023-09-22T04:20:30.379Z,12.17
2023-09-22T04:23:01.815Z,12.08
2023-09-22T04:25:35.679Z,12.08
2023-09-22T04:28:11.726Z,12.05
2023-09-22T04:30:42.615Z,12.11
2023-09-22T04:33:13.347Z,12.10
2023-09-22T04:35:44.439Z,12.25
2023-09-22T04:38:15.875Z,12.18
2023-09-22T04:40:46.305Z,12.14
2023-09-22T04:43:15.893Z,12.15
2023-09-22T04:45:47.632Z,12.19
2023-09-22T04:48:17.847Z,12.23
2023-09-22T04:50:55.467Z,12.32
2023-09-22T04:53:26.841Z,12.39
2023-09-22T04:56:07.625Z,12.31
2023-09-22T04:58:39.506Z,12.37
2023-09-22T05:01:10.102Z,12.38
2023-09-22T05:03:41.046Z,12.46
2023-09-22T05:06:11.989Z,12.44
2023-09-22T05:08:44.111Z,12.54
2023-09-22T05:11:14.674Z,12.55
2023-09-22T05:13:45.642Z,12.51
2023-09-22T05:16:16.509Z,12.51
2023-09-22T05:18:47.009Z,12.54
2023-09-22T05:21:18.377Z,12.61
2023-09-22T05:23:49.627Z,12.68
2023-09-22T05:26:22.267Z,12.76
2023-09-22T05:28:52.349Z,12.77
2023-09-22T05:31:23.047Z,12.88
2023-09-22T05:33:53.056Z,13.11
2023-09-22T05:36:23.369Z,13.13
2023-09-22T05:38:55.250Z,13.21
2023-09-22T05:41:25.330Z,13.33
2023-09-22T05:43:57.933Z,13.44
2023-09-22T05:46:33.066Z,13.54
2023-09-22T05:49:03.340Z,13.83
2023-09-22T05:51:34.022Z,14.02
2023-09-22T05:54:05.813Z,14.15
2023-09-22T05:56:36.472Z,14.23
2023-09-22T05:59:08.010Z,14.31
2023-09-22T06:01:38.945Z,14.49
2023-09-22T06:04:11.109Z,14.62
2023-09-22T06:06:43.943Z,14.86
2023-09-22T06:09:16.508Z,15.01
2023-09-22T06:11:48.026Z,15.27
2023-09-22T06:14:19.924Z,15.42
2023-09-22T06:16:50.675Z,15.61
2023-09-22T06:19:21.641Z,15.75
2023-09-22T06:21:51.855Z,15.94
2023-09-22T06:24:23.238Z,16.16
2023-09-22T06:26:53.751Z,16.49
2023-09-22T06:29:23.592Z,16.82
2023-09-22T06:31:54.118Z,16.92
2023-09-22T06:34:24.150Z,16.94
2023-09-22T06:36:54.542Z,17.14
2023-09-22T06:39:25.895Z,17.37
2023-09-22T06:41:56.411Z,17.55
2023-09-22T06:44:29.222Z,18.14
2023-09-22T06:46:59.483Z,19.02
2023-09-22T06:49:29.983Z,19.51
2023-09-22T06:52:01.413Z,19.83
2023-09-22T06:54:32.700Z,20.15
2023-09-22T06:57:04.371Z,20.15
2023-09-22T06:59:34.450Z,20.49
2023-09-22T07:02:05.000Z,21.04
2023-09-22T07:04:35.254Z,21.02
2023-09-22T07:07:05.964Z,21.17
2023-09-22T07:09:37.624Z,21.73
2023-09-22T07:12:08.358Z,21.83
2023-09-22T07:14:38.428Z,22.16
2023-09-22T07:17:08.998Z,22.19
2023-09-22T07:19:40.813Z,22.63
2023-09-22T07:22:11.316Z,22.55
2023-09-22T07:24:43.777Z,22.82
2023-09-22T07:27:14.037Z,22.80
2023-09-22T07:29:44.458Z,23.08
2023-09-22T07:32:15.888Z,23.65
2023-09-22T07:34:46.980Z,23.35
2023-09-22T07:37:21.029Z,23.36
2023-09-22T07:39:53.401Z,23.34
2023-09-22T07:42:24.011Z,23.17
2023-09-22T07:44:53.797Z,23.25
2023-09-22T07:47:27.110Z,23.23
2023-09-22T07:49:57.840Z,23.60
2023-09-22T07:52:28.113Z,23.59
2023-09-22T07:55:00.422Z,23.95
2023-09-22T07:57:32.054Z,24.00
2023-09-22T08:00:01.904Z,23.83
2023-09-22T08:02:41.625Z,23.73
2023-09-22T08:05:16.531Z,23.78
2023-09-22T08:07:47.231Z,24.06
2023-09-22T08:10:20.019Z,23.97
2023-09-22T08:12:50.510Z,23.97
2023-09-22T08:15:20.433Z,24.23
2023-09-22T08:17:51.378Z,23.87
2023-09-22T08:20:21.350Z,23.87
2023-09-22T08:22:51.640Z,24.42
2023-09-22T08:25:22.991Z,24.34
2023-09-22T08:27:54.250Z,24.56
2023-09-22T08:30:25.443Z,24.65
2023-09-22T08:32:56.549Z,24.81
2023-09-22T08:35:26.513Z,25.16
2023-09-22T08:37:57.446Z,25.06
2023-09-22T08:40:28.750Z,24.43
2023-09-22T08:42:59.121Z,24.08
2023-09-22T08:45:29.029Z,23.81
2023-09-22T08:48:00.233Z,23.91
2023-09-22T08:50:30.289Z,24.37
2023-09-22T08:53:00.511Z,24.66
2023-09-22T08:55:31.660Z,24.82
2023-09-22T08:58:02.384Z,24.82
2023-09-22T09:00:32.668Z,24.73
2023-09-22T09:03:11.708Z,24.58
2023-09-22T09:05:42.266Z,24.77
2023-09-22T09:08:13.777Z,24.93
2023-09-22T09:10:45.598Z,24.95
2023-09-22T09:13:16.360Z,24.54
2023-09-22T09:15:49.502Z,24.02
2023-09-22T09:18:21.188Z,23.75
2023-09-22T09:21:07.554Z,23.60
2023-09-22T09:23:37.960Z,23.48
2023-09-22T09:26:09.329Z,23.40
2023-09-22T09:28:42.701Z,23.33
2023-09-22T09:31:13.097Z,23.57
2023-09-22T09:33:50.537Z,24.00
2023-09-22T09:36:20.463Z,24.15
2023-09-22T09:38:50.693Z,24.12
2023-09-22T09:41:23.966Z,24.47
2023-09-22T09:43:55.831Z,24.97
2023-09-22T09:46:27.124Z,25.32
2023-09-22T09:48:58.668Z,25.65
2023-09-22T09:51:30.411Z,25.93
2023-09-22T09:54:06.538Z,24.96
2023-09-22T09:56:41.021Z,24.76
2023-09-22T09:59:13.612Z,24.57
2023-09-22T10:01:43.684Z,24.57
2023-09-22T10:04:14.302Z,24.78
2023-09-22T10:06:52.249Z,24.85
2023-09-22T10:09:23.419Z,24.84
2023-09-22T10:11:55.346Z,24.76
2023-09-22T10:14:40.412Z,24.84
2023-09-22T10:17:20.798Z,24.80
2023-09-22T10:19:51.101Z,25.04
2023-09-22T10:22:22.885Z,25.07
2023-09-22T10:25:09.228Z,25.03
2023-09-22T10:28:02.447Z,25.17
2023-09-22T10:30:49.030Z,25.25
2023-09-22T10:33:33.897Z,25.29
2023-09-22T10:36:06.169Z,25.30
2023-09-22T10:38:55.431Z,25.24
2023-09-22T10:41:25.723Z,24.80
2023-09-22T10:44:01.631Z,24.65
2023-09-22T10:46:32.660Z,24.55
2023-09-22T10:49:02.643Z,24.50
2023-09-22T10:51:53.827Z,24.49
2023-09-22T10:54:23.828Z,24.54
2023-09-22T10:56:54.023Z,24.71
2023-09-22T10:59:35.275Z,24.90
2023-09-22T11:02:05.642Z,25.13
2023-09-22T11:04:45.096Z,25.22
2023-09-22T11:07:15.441Z,25.32
2023-09-22T11:09:45.433Z,25.27
2023-09-22T11:12:15.700Z,25.34
2023-09-22T11:14:47.819Z,25.47
2023-09-22T11:17:18.217Z,25.61
2023-09-22T11:19:54.746Z,25.74
2023-09-22T11:22:25.142Z,25.77
2023-09-22T11:24:55.312Z,25.86
2023-09-22T11:27:25.852Z,25.66
2023-09-22T11:30:11.211Z,25.36
2023-09-22T11:32:43.442Z,25.18
2023-09-22T11:35:29.787Z,24.98
2023-09-22T11:38:00.520Z,24.91
2023-09-22T11:40:41.222Z,24.73
2023-09-22T11:43:15.391Z,24.68
2023-09-22T11:45:45.651Z,24.65
2023-09-22T11:48:19.912Z,24.54
2023-09-22T11:50:56.959Z,24.53
2023-09-22T11:53:30.369Z,24.56
2023-09-22T11:56:00.460Z,24.62
2023-09-22T11:58:31.014Z,24.57
2023-09-22T12:01:02.030Z,24.44
2023-09-22T12:03:34.279Z,24.45
2023-09-22T12:06:04.843Z,24.38
2023-09-22T12:08:35.395Z,24.32
2023-09-22T12:11:05.770Z,24.42
2023-09-22T12:13:36.228Z,24.46
2023-09-22T12:16:06.490Z,24.44
2023-09-22T12:18:38.373Z,24.50
2023-09-22T12:21:08.475Z,24.44
2023-09-22T12:23:39.807Z,24.41
2023-09-22T12:26:10.619Z,24.40
2023-09-22T12:28:41.990Z,24.44
2023-09-22T12:31:12.173Z,24.42
2023-09-22T12:33:44.425Z,24.38
2023-09-22T12:36:15.935Z,24.35
2023-09-22T12:38:47.165Z,24.38
2023-09-22T12:41:17.240Z,24.47
2023-09-22T12:43:47.916Z,24.46
2023-09-22T12:46:18.322Z,24.52
2023-09-22T12:48:50.245Z,24.50
2023-09-22T12:51:20.076Z,24.45
2023-09-22T12:53:50.898Z,24.58
2023-09-22T12:56:20.959Z,24.55
2023-09-22T12:58:51.335Z,24.57
2023-09-22T13:01:21.576Z,24.63
2023-09-22T13:03:53.870Z,24.66
2023-09-22T13:06:23.913Z,24.70
2023-09-22T13:08:54.832Z,24.74
2023-09-22T13:11:24.941Z,24.66
2023-09-22T13:13:55.609Z,24.72
2023-09-22T13:16:25.869Z,24.69
2023-09-22T13:18:57.824Z,24.77
2023-09-22T13:21:28.152Z,24.78
2023-09-22T13:23:59.342Z,24.84
2023-09-22T13:26:29.317Z,24.66
2023-09-22T13:29:01.443Z,24.58
2023-09-22T13:31:31.279Z,24.51
2023-09-22T13:34:03.905Z,24.51
2023-09-22T13:36:33.769Z,24.45
2023-09-22T13:39:05.021Z,24.41
2023-09-22T13:41:35.005Z,24.41
2023-09-22T13:44:07.381Z,24.34
2023-09-22T13:46:37.478Z,24.32
2023-09-22T13:49:09.148Z,24.27
2023-09-22T13:51:39.039Z,24.16
2023-09-22T13:54:09.250Z,24.11
2023-09-22T13:56:39.803Z,24.05
2023-09-22T13:59:10.090Z,24.09
2023-09-22T14:01:40.653Z,24.15
2023-09-22T14:04:12.888Z,24.04
2023-09-22T14:06:42.822Z,23.99
2023-09-22T14:09:13.098Z,23.93
2023-09-22T14:11:42.972Z,23.89
2023-09-22T14:14:13.095Z,23.92
2023-09-22T14:16:43.466Z,23.89
2023-09-22T14:19:15.458Z,23.84
2023-09-22T14:21:45.253Z,23.88
2023-09-22T14:24:15.770Z,23.86
2023-09-22T14:26:46.450Z,23.77
2023-09-22T14:29:16.802Z,23.80
2023-09-22T14:31:46.934Z,23.84
2023-09-22T14:34:18.770Z,23.81
2023-09-22T14:36:48.467Z,23.79
2023-09-22T14:39:18.769Z,23.73
2023-09-22T14:41:48.537Z,23.65
2023-09-22T14:44:18.992Z,23.65
2023-09-22T14:46:49.375Z,23.63
2023-09-22T14:49:22.177Z,23.60
2023-09-22T14:51:52.288Z,23.61
2023-09-22T14:54:23.217Z,23.58
2023-09-22T14:56:52.979Z,23.53
2023-09-22T14:59:23.087Z,23.52
2023-09-22T15:01:53.064Z,23.48
2023-09-22T15:04:25.068Z,23.34
2023-09-22T15:06:55.439Z,23.32
2023-09-22T15:09:26.388Z,23.29
2023-09-22T15:11:56.261Z,23.29
2023-09-22T15:14:28.900Z,23.11
2023-09-22T15:16:59.925Z,23.10
2023-09-22T15:19:31.634Z,23.14
2023-09-22T15:22:01.365Z,23.18
2023-09-22T15:24:31.603Z,23.10
2023-09-22T15:27:01.567Z,22.98
2023-09-22T15:29:31.917Z,22.87
2023-09-22T15:32:02.771Z,22.86
2023-09-22T15:34:34.721Z,22.79
2023-09-22T15:37:05.337Z,22.75
2023-09-22T15:39:36.142Z,22.75
2023-09-22T15:42:07.280Z,22.67
2023-09-22T15:44:38.563Z,22.62
2023-09-22T15:47:13.356Z,22.61
2023-09-22T15:49:45.977Z,22.65
2023-09-22T15:52:17.892Z,22.79
2023-09-22T15:54:52.638Z,22.95
2023-09-22T15:57:24.713Z,22.86
2023-09-22T15:59:58.708Z,22.22
2023-09-22T16:02:29.407Z,21.73
2023-09-22T16:05:01.316Z,21.20
2023-09-22T16:07:31.337Z,20.75
2023-09-22T16:10:02.021Z,20.53
2023-09-22T16:12:31.937Z,20.48
2023-09-22T16:15:02.264Z,20.23
2023-09-22T16:17:32.116Z,20.04
2023-09-22T16:20:05.596Z,19.98
2023-09-22T16:22:35.878Z,19.85
2023-09-22T16:25:06.406Z,19.73
2023-09-22T16:27:36.306Z,19.73
2023-09-22T16:30:07.700Z,19.83
2023-09-22T16:32:37.933Z,19.65
2023-09-22T16:35:10.675Z,19.67
2023-09-22T16:37:40.867Z,19.63
2023-09-22T16:40:12.444Z,19.63
2023-09-22T16:42:45.385Z,19.62
2023-09-22T16:45:17.292Z,19.63
2023-09-22T16:47:47.297Z,19.57
2023-09-22T16:50:20.660Z,19.55
2023-09-22T16:52:50.604Z,19.48
2023-09-22T16:55:21.102Z,19.44
2023-09-22T16:57:51.869Z,19.37
2023-09-22T17:00:24.721Z,19.31
2023-09-22T17:02:55.722Z,19.31
2023-09-22T17:05:27.601Z,19.32
2023-09-22T17:07:57.703Z,19.28
2023-09-22T17:10:27.815Z,19.27
2023-09-22T17:12:57.822Z,19.20
2023-09-22T17:15:28.211Z,19.16
2023-09-22T17:17:58.210Z,19.12
2023-09-22T17:20:30.076Z,19.14
2023-09-22T17:23:00.090Z,19.11
2023-09-22T17:25:30.523Z,18.98
2023-09-22T17:28:00.422Z,19.00
2023-09-22T17:30:30.613Z,18.95
2023-09-22T17:33:00.505Z,18.86
2023-09-22T17:35:32.547Z,18.81
2023-09-22T17:38:02.607Z,18.66
2023-09-22T17:40:32.855Z,18.62
2023-09-22T17:43:05.436Z,18.51
2023-09-22T17:45:36.001Z,18.39
2023-09-22T17:48:07.250Z,18.43
2023-09-22T17:50:39.513Z,18.37
2023-09-22T17:53:12.106Z,18.24
2023-09-22T17:55:42.357Z,18.10
2023-09-22T17:58:12.052Z,17.94
2023-09-22T18:00:42.600Z,17.59
2023-09-22T18:03:12.582Z,17.19
2023-09-22T18:05:44.430Z,16.90
2023-09-22T18:08:14.516Z,16.90
2023-09-22T18:10:44.648Z,16.83
2023-09-22T18:13:19.592Z,16.89
2023-09-22T18:15:51.112Z,16.87
2023-09-22T18:18:21.071Z,16.70
2023-09-22T18:20:56.075Z,16.64
2023-09-22T18:23:26.278Z,16.60
2023-09-22T18:26:01.475Z,16.66
2023-09-22T18:28:35.141Z,16.65
2023-09-22T18:31:08.737Z,16.52
2023-09-22T18:33:40.853Z,16.47
2023-09-22T18:36:14.771Z,16.48
2023-09-22T18:38:45.179Z,16.39
2023-09-22T18:41:20.996Z,16.41
2023-09-22T18:43:53.482Z,16.35
2023-09-22T18:46:26.411Z,16.23
2023-09-22T18:49:03.217Z,16.04
2023-09-22T18:51:39.145Z,15.89
2023-09-22T18:54:10.500Z,15.79
2023-09-22T18:56:44.334Z,15.75
2023-09-22T18:59:21.312Z,15.73
2023-09-22T19:01:56.041Z,15.69
2023-09-22T19:04:27.257Z,15.65
2023-09-22T19:07:01.664Z,15.64
2023-09-22T19:09:32.580Z,15.59
2023-09-22T19:12:04.737Z,15.61
2023-09-22T19:14:41.658Z,15.54
2023-09-22T19:17:24.541Z,15.52
2023-09-22T19:19:58.781Z,15.54
2023-09-22T19:22:34.431Z,15.48
2023-09-22T19:25:06.343Z,15.57
2023-09-22T19:27:36.798Z,15.56
2023-09-22T19:30:07.516Z,15.44
2023-09-22T19:32:38.220Z,15.45
2023-09-22T19:35:08.869Z,15.40
2023-09-22T19:37:40.610Z,15.36
2023-09-22T19:40:13.426Z,15.29
2023-09-22T19:42:43.622Z,15.26
2023-09-22T19:45:13.414Z,15.25
2023-09-22T19:47:45.765Z,15.18
2023-09-22T19:50:16.136Z,15.17
2023-09-22T19:52:48.000Z,15.13
2023-09-22T19:55:17.821Z,15.08
2023-09-22T19:57:48.094Z,15.03
2023-09-22T20:00:20.341Z,15.04
2023-09-22T20:02:51.734Z,15.07
2023-09-22T20:05:21.900Z,15.00
2023-09-22T20:07:55.212Z,15.04
2023-09-22T20:10:25.177Z,14.96
2023-09-22T20:12:57.451Z,14.99
2023-09-22T20:15:27.630Z,15.05
2023-09-22T20:17:57.758Z,15.09
2023-09-22T20:20:28.936Z,15.05
2023-09-22T20:23:00.652Z,14.97
2023-09-22T20:25:32.566Z,14.98
2023-09-22T20:28:05.914Z,14.88
2023-09-22T20:30:38.629Z,14.86
2023-09-22T20:33:11.280Z,14.95
2023-09-22T20:35:43.837Z,14.97
2023-09-22T20:38:18.080Z,14.94
2023-09-22T20:43:21.600Z,14.97
2023-09-22T20:45:54.868Z,15.04
2023-09-22T20:48:26.768Z,15.03
2023-09-22T20:50:56.657Z,15.08
2023-09-22T20:53:29.058Z,15.13
2023-09-22T20:55:58.957Z,15.19
2023-09-22T20:58:29.161Z,15.25
2023-09-22T21:01:02.180Z,15.24
2023-09-22T21:03:32.534Z,15.26
2023-09-22T21:06:04.849Z,15.20
2023-09-22T21:08:37.808Z,15.14
2023-09-22T21:11:08.643Z,15.15
2023-09-22T21:13:39.263Z,15.18
2023-09-22T21:16:11.992Z,15.21
2023-09-22T21:18:42.309Z,15.23
2023-09-22T21:21:12.078Z,15.25
2023-09-22T21:23:43.717Z,15.15
2023-09-22T21:26:17.059Z,15.27
2023-09-22T21:28:47.420Z,15.31
2023-09-22T21:31:17.462Z,15.29
2023-09-22T21:33:48.770Z,15.27
2023-09-22T21:36:19.444Z,15.24
2023-09-22T21:38:55.982Z,15.25
2023-09-22T21:41:26.059Z,15.21
2023-09-22T21:43:56.369Z,15.06
2023-09-22T21:46:27.220Z,15.00
2023-09-22T21:48:57.757Z,15.02
2023-09-22T21:51:27.689Z,15.03
2023-09-22T21:53:59.527Z,15.04
2023-09-22T21:56:29.266Z,15.09
2023-09-22T21:59:00.871Z,15.19
2023-09-22T22:01:33.157Z,15.22
2023-09-22T22:04:04.898Z,15.14
2023-09-22T22:06:43.899Z,15.17
2023-09-22T22:09:19.378Z,15.21
2023-09-22T22:11:50.876Z,15.06
2023-09-22T22:14:21.011Z,15.14
2023-09-22T22:16:52.543Z,15.12
2023-09-22T22:19:22.979Z,15.17
2023-09-22T22:21:56.307Z,15.19
2023-09-22T22:24:30.386Z,15.13
2023-09-22T22:27:01.928Z,15.16
2023-09-22T22:29:32.307Z,15.08
2023-09-22T22:32:02.387Z,15.10
2023-09-22T22:34:32.644Z,15.17
2023-09-22T22:37:04.896Z,15.18
2023-09-22T22:39:36.404Z,15.24
2023-09-22T22:42:07.031Z,15.21
2023-09-22T22:44:38.584Z,15.09
2023-09-22T22:47:09.245Z,15.14
2023-09-22T22:49:39.676Z,15.10
2023-09-22T22:52:10.632Z,14.97
2023-09-22T22:54:42.304Z,14.99
2023-09-22T22:57:13.264Z,14.96
2023-09-22T22:59:43.475Z,14.83
2023-09-22T23:02:13.324Z,14.80
2023-09-22T23:04:44.703Z,14.75
2023-09-22T23:07:14.528Z,14.62
2023-09-22T23:09:46.376Z,14.65
2023-09-22T23:12:16.645Z,14.66
2023-09-22T23:14:48.405Z,14.72
2023-09-22T23:17:23.172Z,14.68
2023-09-22T23:19:53.416Z,14.73
2023-09-22T23:22:25.386Z,14.59
2023-09-22T23:24:57.821Z,14.57
2023-09-22T23:27:27.526Z,14.65
2023-09-22T23:29:57.877Z,14.74
2023-09-22T23:32:27.830Z,14.70
2023-09-22T23:35:00.658Z,14.70
2023-09-22T23:37:32.173Z,14.70
2023-09-22T23:40:04.447Z,14.68
2023-09-22T23:42:38.460Z,14.66
2023-09-22T23:45:10.328Z,14.63
2023-09-22T23:47:41.826Z,14.56
2023-09-22T23:50:13.535Z,14.56
2023-09-22T23:52:43.359Z,14.55
2023-09-22T23:55:15.091Z,14.58
2023-09-22T23:57:44.734Z,14.65
